sensor_id;sensor_type;location;lat;lon;timestamp;P1;durP1;ratioP1;P2;durP2;ratioP2
48951;SDS011;34758;42.148;24.744;2023-04-03T00:00:36;0.50;;;0.20;;
48951;SDS011;34758;42.148;24.744;2023-04-03T00:03:05;1.55;;;0.22;;
48951;SDS011;34758;42.148;24.744;2023-04-03T00:05:32;0.82;;;0.40;;
48951;SDS011;34758;42.148;24.744;2023-04-03T00:07:59;0.77;;;0.32;;
48951;SDS011;34758;42.148;24.744;2023-04-03T00:10:27;1.52;;;0.60;;
48951;SDS011;34758;42.148;24.744;2023-04-03T00:12:54;0.93;;;0.20;;
48951;SDS011;34758;42.148;24.744;2023-04-03T00:15:21;1.30;;;0.30;;
48951;SDS011;34758;42.148;24.744;2023-04-03T00:17:49;1.15;;;0.25;;
48951;SDS011;34758;42.148;24.744;2023-04-03T00:20:20;1.15;;;0.30;;
48951;SDS011;34758;42.148;24.744;2023-04-03T00:22:47;0.95;;;0.40;;
48951;SDS011;34758;42.148;24.744;2023-04-03T00:25:14;4.25;;;0.30;;
48951;SDS011;34758;42.148;24.744;2023-04-03T00:27:42;0.63;;;0.30;;
48951;SDS011;34758;42.148;24.744;2023-04-03T00:30:10;0.82;;;0.30;;
48951;SDS011;34758;42.148;24.744;2023-04-03T00:32:40;2.03;;;0.30;;
48951;SDS011;34758;42.148;24.744;2023-04-03T00:35:07;2.58;;;0.40;;
48951;SDS011;34758;42.148;24.744;2023-04-03T00:37:37;1.63;;;0.40;;
48951;SDS011;34758;42.148;24.744;2023-04-03T00:40:04;1.08;;;0.28;;
48951;SDS011;34758;42.148;24.744;2023-04-03T00:42:32;2.50;;;0.80;;
48951;SDS011;34758;42.148;24.744;2023-04-03T00:47:52;3.72;;;1.17;;
48951;SDS011;34758;42.148;24.744;2023-04-03T00:50:20;2.92;;;0.75;;
48951;SDS011;34758;42.148;24.744;2023-04-03T00:52:48;1.52;;;0.60;;
48951;SDS011;34758;42.148;24.744;2023-04-03T00:55:17;1.38;;;0.55;;
48951;SDS011;34758;42.148;24.744;2023-04-03T00:57:44;2.90;;;0.70;;
48951;SDS011;34758;42.148;24.744;2023-04-03T01:00:14;1.10;;;0.60;;
48951;SDS011;34758;42.148;24.744;2023-04-03T01:02:45;0.90;;;0.47;;
48951;SDS011;34758;42.148;24.744;2023-04-03T01:05:12;2.22;;;0.50;;
48951;SDS011;34758;42.148;24.744;2023-04-03T01:07:42;1.75;;;0.73;;
48951;SDS011;34758;42.148;24.744;2023-04-03T01:10:11;1.42;;;0.50;;
48951;SDS011;34758;42.148;24.744;2023-04-03T01:12:40;1.25;;;0.70;;
48951;SDS011;34758;42.148;24.744;2023-04-03T01:15:09;2.05;;;0.60;;
48951;SDS011;34758;42.148;24.744;2023-04-03T01:17:38;1.70;;;0.73;;
48951;SDS011;34758;42.148;24.744;2023-04-03T01:20:15;1.33;;;0.50;;
48951;SDS011;34758;42.148;24.744;2023-04-03T01:23:27;1.67;;;0.68;;
48951;SDS011;34758;42.148;24.744;2023-04-03T01:26:00;1.25;;;0.60;;
48951;SDS011;34758;42.148;24.744;2023-04-03T01:28:30;2.28;;;0.65;;
48951;SDS011;34758;42.148;24.744;2023-04-03T01:31:00;3.88;;;1.50;;
48951;SDS011;34758;42.148;24.744;2023-04-03T01:33:33;1.58;;;0.85;;
48951;SDS011;34758;42.148;24.744;2023-04-03T01:36:01;3.10;;;1.15;;
48951;SDS011;34758;42.148;24.744;2023-04-03T01:38:28;2.03;;;0.60;;
48951;SDS011;34758;42.148;24.744;2023-04-03T01:40:56;2.20;;;0.50;;
48951;SDS011;34758;42.148;24.744;2023-04-03T01:43:23;1.92;;;0.40;;
48951;SDS011;34758;42.148;24.744;2023-04-03T01:45:50;1.50;;;0.55;;
48951;SDS011;34758;42.148;24.744;2023-04-03T01:48:19;0.70;;;0.40;;
48951;SDS011;34758;42.148;24.744;2023-04-03T01:50:47;2.25;;;0.45;;
48951;SDS011;34758;42.148;24.744;2023-04-03T01:53:15;1.17;;;0.43;;
48951;SDS011;34758;42.148;24.744;2023-04-03T01:55:42;4.15;;;0.75;;
48951;SDS011;34758;42.148;24.744;2023-04-03T01:58:09;1.77;;;0.88;;
48951;SDS011;34758;42.148;24.744;2023-04-03T02:00:36;1.60;;;0.70;;
48951;SDS011;34758;42.148;24.744;2023-04-03T02:03:03;2.08;;;0.90;;
48951;SDS011;34758;42.148;24.744;2023-04-03T02:05:32;3.60;;;0.90;;
48951;SDS011;34758;42.148;24.744;2023-04-03T02:08:00;2.80;;;1.40;;
48951;SDS011;34758;42.148;24.744;2023-04-03T02:10:28;3.35;;;1.60;;
48951;SDS011;34758;42.148;24.744;2023-04-03T02:12:55;2.60;;;1.40;;
48951;SDS011;34758;42.148;24.744;2023-04-03T02:15:23;1.98;;;1.13;;
48951;SDS011;34758;42.148;24.744;2023-04-03T02:17:49;2.28;;;1.13;;
48951;SDS011;34758;42.148;24.744;2023-04-03T02:20:17;3.05;;;1.00;;
48951;SDS011;34758;42.148;24.744;2023-04-03T02:22:44;2.35;;;1.25;;
48951;SDS011;34758;42.148;24.744;2023-04-03T02:25:13;3.13;;;1.20;;
48951;SDS011;34758;42.148;24.744;2023-04-03T02:27:40;4.00;;;1.98;;
48951;SDS011;34758;42.148;24.744;2023-04-03T02:30:07;4.03;;;2.22;;
48951;SDS011;34758;42.148;24.744;2023-04-03T02:32:36;2.92;;;1.60;;
48951;SDS011;34758;42.148;24.744;2023-04-03T02:35:03;2.08;;;0.85;;
48951;SDS011;34758;42.148;24.744;2023-04-03T02:37:31;2.53;;;1.00;;
48951;SDS011;34758;42.148;24.744;2023-04-03T02:39:58;3.13;;;0.85;;
48951;SDS011;34758;42.148;24.744;2023-04-03T02:42:26;1.70;;;0.95;;
48951;SDS011;34758;42.148;24.744;2023-04-03T02:44:53;2.50;;;1.27;;
48951;SDS011;34758;42.148;24.744;2023-04-03T02:47:20;1.88;;;0.50;;
48951;SDS011;34758;42.148;24.744;2023-04-03T02:49:48;1.35;;;0.80;;
48951;SDS011;34758;42.148;24.744;2023-04-03T02:52:15;2.33;;;0.88;;
48951;SDS011;34758;42.148;24.744;2023-04-03T02:54:41;1.27;;;0.63;;
48951;SDS011;34758;42.148;24.744;2023-04-03T02:57:11;2.45;;;0.98;;
48951;SDS011;34758;42.148;24.744;2023-04-03T02:59:39;3.42;;;0.68;;
48951;SDS011;34758;42.148;24.744;2023-04-03T03:02:06;1.00;;;0.77;;
48951;SDS011;34758;42.148;24.744;2023-04-03T03:04:34;2.47;;;0.93;;
48951;SDS011;34758;42.148;24.744;2023-04-03T03:07:01;2.70;;;0.90;;
48951;SDS011;34758;42.148;24.744;2023-04-03T03:09:28;3.40;;;0.77;;
48951;SDS011;34758;42.148;24.744;2023-04-03T03:11:56;2.30;;;0.90;;
48951;SDS011;34758;42.148;24.744;2023-04-03T03:14:23;3.10;;;0.80;;
48951;SDS011;34758;42.148;24.744;2023-04-03T03:16:51;1.70;;;0.82;;
48951;SDS011;34758;42.148;24.744;2023-04-03T03:19:19;1.55;;;0.90;;
48951;SDS011;34758;42.148;24.744;2023-04-03T03:21:45;2.15;;;1.02;;
48951;SDS011;34758;42.148;24.744;2023-04-03T03:24:12;1.77;;;0.80;;
48951;SDS011;34758;42.148;24.744;2023-04-03T03:26:41;2.45;;;1.20;;
48951;SDS011;34758;42.148;24.744;2023-04-03T03:29:08;2.17;;;1.00;;
48951;SDS011;34758;42.148;24.744;2023-04-03T03:31:35;3.05;;;1.10;;
48951;SDS011;34758;42.148;24.744;2023-04-03T03:34:03;1.63;;;1.08;;
48951;SDS011;34758;42.148;24.744;2023-04-03T03:36:30;3.08;;;1.40;;
48951;SDS011;34758;42.148;24.744;2023-04-03T03:38:57;3.40;;;1.30;;
48951;SDS011;34758;42.148;24.744;2023-04-03T03:41:24;2.58;;;1.65;;
48951;SDS011;34758;42.148;24.744;2023-04-03T03:43:53;2.97;;;1.30;;
48951;SDS011;34758;42.148;24.744;2023-04-03T03:46:20;3.20;;;1.40;;
48951;SDS011;34758;42.148;24.744;2023-04-03T03:48:47;3.63;;;1.50;;
48951;SDS011;34758;42.148;24.744;2023-04-03T03:51:16;2.15;;;1.08;;
48951;SDS011;34758;42.148;24.744;2023-04-03T03:53:43;3.45;;;1.58;;
48951;SDS011;34758;42.148;24.744;2023-04-03T03:56:10;7.35;;;3.97;;
48951;SDS011;34758;42.148;24.744;2023-04-03T03:58:37;8.43;;;3.30;;
48951;SDS011;34758;42.148;24.744;2023-04-03T04:01:05;6.18;;;3.30;;
48951;SDS011;34758;42.148;24.744;2023-04-03T04:03:32;7.03;;;3.08;;
48951;SDS011;34758;42.148;24.744;2023-04-03T04:06:00;4.80;;;2.50;;
48951;SDS011;34758;42.148;24.744;2023-04-03T04:08:28;7.03;;;3.20;;
48951;SDS011;34758;42.148;24.744;2023-04-03T04:10:56;7.57;;;3.03;;
48951;SDS011;34758;42.148;24.744;2023-04-03T04:13:23;7.45;;;4.45;;
48951;SDS011;34758;42.148;24.744;2023-04-03T04:15:50;6.75;;;3.25;;
48951;SDS011;34758;42.148;24.744;2023-04-03T04:18:17;6.65;;;3.10;;
48951;SDS011;34758;42.148;24.744;2023-04-03T04:20:45;5.63;;;2.40;;
48951;SDS011;34758;42.148;24.744;2023-04-03T04:23:12;5.63;;;2.30;;
48951;SDS011;34758;42.148;24.744;2023-04-03T04:25:40;6.65;;;3.33;;
48951;SDS011;34758;42.148;24.744;2023-04-03T04:28:07;12.15;;;3.75;;
48951;SDS011;34758;42.148;24.744;2023-04-03T04:30:34;9.70;;;3.67;;
48951;SDS011;34758;42.148;24.744;2023-04-03T04:33:03;6.28;;;3.60;;
48951;SDS011;34758;42.148;24.744;2023-04-03T04:35:31;11.45;;;4.88;;
48951;SDS011;34758;42.148;24.744;2023-04-03T04:37:58;9.55;;;3.90;;
48951;SDS011;34758;42.148;24.744;2023-04-03T04:40:25;14.50;;;4.35;;
48951;SDS011;34758;42.148;24.744;2023-04-03T04:42:53;11.50;;;4.30;;
48951;SDS011;34758;42.148;24.744;2023-04-03T04:45:21;7.38;;;3.25;;
48951;SDS011;34758;42.148;24.744;2023-04-03T04:47:47;7.15;;;3.90;;
48951;SDS011;34758;42.148;24.744;2023-04-03T04:50:16;11.38;;;4.18;;
48951;SDS011;34758;42.148;24.744;2023-04-03T04:52:43;10.23;;;4.32;;
48951;SDS011;34758;42.148;24.744;2023-04-03T04:55:10;11.95;;;4.57;;
48951;SDS011;34758;42.148;24.744;2023-04-03T04:57:37;4.32;;;3.08;;
48951;SDS011;34758;42.148;24.744;2023-04-03T05:00:06;8.18;;;3.70;;
48951;SDS011;34758;42.148;24.744;2023-04-03T05:02:33;6.57;;;3.00;;
48951;SDS011;34758;42.148;24.744;2023-04-03T05:05:00;4.63;;;2.75;;
48951;SDS011;34758;42.148;24.744;2023-04-03T05:07:27;6.90;;;3.13;;
48951;SDS011;34758;42.148;24.744;2023-04-03T05:09:54;11.35;;;4.70;;
48951;SDS011;34758;42.148;24.744;2023-04-03T05:12:21;13.77;;;5.15;;
48951;SDS011;34758;42.148;24.744;2023-04-03T05:14:48;16.98;;;5.85;;
48951;SDS011;34758;42.148;24.744;2023-04-03T05:17:17;21.23;;;11.30;;
48951;SDS011;34758;42.148;24.744;2023-04-03T05:19:44;11.85;;;6.05;;
48951;SDS011;34758;42.148;24.744;2023-04-03T05:22:11;12.88;;;5.20;;
48951;SDS011;34758;42.148;24.744;2023-04-03T05:24:38;16.10;;;5.40;;
48951;SDS011;34758;42.148;24.744;2023-04-03T05:27:05;14.18;;;4.82;;
48951;SDS011;34758;42.148;24.744;2023-04-03T05:29:32;13.80;;;4.90;;
48951;SDS011;34758;42.148;24.744;2023-04-03T05:31:59;16.08;;;5.30;;
48951;SDS011;34758;42.148;24.744;2023-04-03T05:34:27;13.18;;;5.40;;
48951;SDS011;34758;42.148;24.744;2023-04-03T05:36:56;9.77;;;5.00;;
48951;SDS011;34758;42.148;24.744;2023-04-03T05:39:23;12.02;;;5.20;;
48951;SDS011;34758;42.148;24.744;2023-04-03T05:41:50;9.68;;;4.90;;
48951;SDS011;34758;42.148;24.744;2023-04-03T05:44:17;13.80;;;5.07;;
48951;SDS011;34758;42.148;24.744;2023-04-03T05:46:45;10.55;;;5.20;;
48951;SDS011;34758;42.148;24.744;2023-04-03T05:49:12;9.48;;;4.57;;
48951;SDS011;34758;42.148;24.744;2023-04-03T05:51:44;8.25;;;4.32;;
48951;SDS011;34758;42.148;24.744;2023-04-03T05:54:14;9.57;;;5.18;;
48951;SDS011;34758;42.148;24.744;2023-04-03T05:56:44;12.98;;;4.93;;
48951;SDS011;34758;42.148;24.744;2023-04-03T05:59:13;10.93;;;4.28;;
48951;SDS011;34758;42.148;24.744;2023-04-03T06:01:40;12.13;;;4.45;;
48951;SDS011;34758;42.148;24.744;2023-04-03T06:04:10;10.65;;;4.50;;
48951;SDS011;34758;42.148;24.744;2023-04-03T06:06:48;8.35;;;4.60;;
48951;SDS011;34758;42.148;24.744;2023-04-03T06:09:18;9.85;;;4.55;;
48951;SDS011;34758;42.148;24.744;2023-04-03T06:11:47;9.73;;;4.18;;
48951;SDS011;34758;42.148;24.744;2023-04-03T06:14:17;9.45;;;3.95;;
48951;SDS011;34758;42.148;24.744;2023-04-03T06:16:44;12.57;;;4.43;;
48951;SDS011;34758;42.148;24.744;2023-04-03T06:19:13;10.27;;;5.22;;
48951;SDS011;34758;42.148;24.744;2023-04-03T06:21:45;16.63;;;4.18;;
48951;SDS011;34758;42.148;24.744;2023-04-03T06:24:14;9.10;;;4.40;;
48951;SDS011;34758;42.148;24.744;2023-04-03T06:26:45;9.70;;;3.60;;
48951;SDS011;34758;42.148;24.744;2023-04-03T06:29:14;8.52;;;4.22;;
48951;SDS011;34758;42.148;24.744;2023-04-03T06:31:40;10.30;;;4.15;;
48951;SDS011;34758;42.148;24.744;2023-04-03T06:34:09;7.82;;;3.80;;
48951;SDS011;34758;42.148;24.744;2023-04-03T06:36:39;8.77;;;3.63;;
48951;SDS011;34758;42.148;24.744;2023-04-03T06:39:10;12.45;;;4.53;;
48951;SDS011;34758;42.148;24.744;2023-04-03T06:41:54;9.80;;;3.60;;
48951;SDS011;34758;42.148;24.744;2023-04-03T06:44:22;8.40;;;3.55;;
48951;SDS011;34758;42.148;24.744;2023-04-03T06:46:50;11.25;;;3.90;;
48951;SDS011;34758;42.148;24.744;2023-04-03T06:49:20;6.22;;;3.30;;
48951;SDS011;34758;42.148;24.744;2023-04-03T06:51:49;9.27;;;3.78;;
48951;SDS011;34758;42.148;24.744;2023-04-03T06:54:20;8.75;;;3.55;;
48951;SDS011;34758;42.148;24.744;2023-04-03T06:56:47;10.48;;;3.00;;
48951;SDS011;34758;42.148;24.744;2023-04-03T06:59:14;8.23;;;3.10;;
48951;SDS011;34758;42.148;24.744;2023-04-03T07:01:42;6.85;;;2.70;;
48951;SDS011;34758;42.148;24.744;2023-04-03T07:04:11;5.32;;;3.28;;
48951;SDS011;34758;42.148;24.744;2023-04-03T07:06:38;5.13;;;3.05;;
48951;SDS011;34758;42.148;24.744;2023-04-03T07:09:05;6.20;;;3.30;;
48951;SDS011;34758;42.148;24.744;2023-04-03T07:14:17;9.95;;;3.40;;
48951;SDS011;34758;42.148;24.744;2023-04-03T07:16:44;5.10;;;2.95;;
48951;SDS011;34758;42.148;24.744;2023-04-03T07:19:13;5.15;;;2.60;;
48951;SDS011;34758;42.148;24.744;2023-04-03T07:21:42;4.88;;;2.65;;
48951;SDS011;34758;42.148;24.744;2023-04-03T07:24:08;3.80;;;2.28;;
48951;SDS011;34758;42.148;24.744;2023-04-03T07:26:37;2.72;;;1.42;;
48951;SDS011;34758;42.148;24.744;2023-04-03T07:29:05;3.45;;;1.80;;
48951;SDS011;34758;42.148;24.744;2023-04-03T07:31:35;3.67;;;1.88;;
48951;SDS011;34758;42.148;24.744;2023-04-03T07:34:03;5.55;;;2.13;;
48951;SDS011;34758;42.148;24.744;2023-04-03T07:36:30;4.55;;;2.30;;
48951;SDS011;34758;42.148;24.744;2023-04-03T07:39:01;3.55;;;2.00;;
48951;SDS011;34758;42.148;24.744;2023-04-03T07:41:33;6.75;;;2.00;;
48951;SDS011;34758;42.148;24.744;2023-04-03T07:44:01;5.95;;;1.60;;
48951;SDS011;34758;42.148;24.744;2023-04-03T07:46:30;11.88;;;2.05;;
48951;SDS011;34758;42.148;24.744;2023-04-03T07:48:57;6.90;;;2.00;;
48951;SDS011;34758;42.148;24.744;2023-04-03T07:51:24;4.00;;;1.55;;
48951;SDS011;34758;42.148;24.744;2023-04-03T07:53:51;6.05;;;2.15;;
48951;SDS011;34758;42.148;24.744;2023-04-03T07:56:21;4.35;;;1.55;;
48951;SDS011;34758;42.148;24.744;2023-04-03T07:58:48;3.63;;;1.70;;
48951;SDS011;34758;42.148;24.744;2023-04-03T08:01:16;2.78;;;1.20;;
48951;SDS011;34758;42.148;24.744;2023-04-03T08:03:44;2.70;;;1.23;;
48951;SDS011;34758;42.148;24.744;2023-04-03T08:06:11;3.53;;;2.28;;
48951;SDS011;34758;42.148;24.744;2023-04-03T08:08:39;4.40;;;1.40;;
48951;SDS011;34758;42.148;24.744;2023-04-03T08:11:05;4.32;;;1.02;;
48951;SDS011;34758;42.148;24.744;2023-04-03T08:13:33;2.28;;;1.30;;
48951;SDS011;34758;42.148;24.744;2023-04-03T08:16:07;3.65;;;1.30;;
48951;SDS011;34758;42.148;24.744;2023-04-03T08:18:35;3.13;;;1.17;;
48951;SDS011;34758;42.148;24.744;2023-04-03T08:21:06;5.32;;;1.88;;
48951;SDS011;34758;42.148;24.744;2023-04-03T08:23:34;3.35;;;1.80;;
48951;SDS011;34758;42.148;24.744;2023-04-03T08:26:05;7.25;;;3.33;;
48951;SDS011;34758;42.148;24.744;2023-04-03T08:28:33;8.73;;;3.75;;
48951;SDS011;34758;42.148;24.744;2023-04-03T08:31:02;12.55;;;3.72;;
48951;SDS011;34758;42.148;24.744;2023-04-03T08:33:31;6.38;;;3.72;;
48951;SDS011;34758;42.148;24.744;2023-04-03T08:35:58;9.65;;;4.60;;
48951;SDS011;34758;42.148;24.744;2023-04-03T08:38:27;16.83;;;6.15;;
48951;SDS011;34758;42.148;24.744;2023-04-03T08:41:02;16.20;;;7.40;;
48951;SDS011;34758;42.148;24.744;2023-04-03T08:43:34;14.77;;;7.20;;
48951;SDS011;34758;42.148;24.744;2023-04-03T08:46:05;14.13;;;7.05;;
48951;SDS011;34758;42.148;24.744;2023-04-03T08:48:33;13.57;;;5.88;;
48951;SDS011;34758;42.148;24.744;2023-04-03T08:51:04;8.15;;;4.45;;
48951;SDS011;34758;42.148;24.744;2023-04-03T08:53:39;13.55;;;3.65;;
48951;SDS011;34758;42.148;24.744;2023-04-03T08:56:08;10.35;;;3.50;;
48951;SDS011;34758;42.148;24.744;2023-04-03T08:58:41;10.07;;;4.53;;
48951;SDS011;34758;42.148;24.744;2023-04-03T09:01:14;15.02;;;5.15;;
48951;SDS011;34758;42.148;24.744;2023-04-03T09:03:44;12.57;;;4.13;;
48951;SDS011;34758;42.148;24.744;2023-04-03T09:06:13;5.50;;;2.70;;
48951;SDS011;34758;42.148;24.744;2023-04-03T09:08:44;5.60;;;2.67;;
48951;SDS011;34758;42.148;24.744;2023-04-03T09:13:44;4.40;;;2.70;;
48951;SDS011;34758;42.148;24.744;2023-04-03T09:16:27;6.70;;;2.28;;
48951;SDS011;34758;42.148;24.744;2023-04-03T09:19:02;8.50;;;4.30;;
48951;SDS011;34758;42.148;24.744;2023-04-03T09:21:37;8.15;;;3.53;;
48951;SDS011;34758;42.148;24.744;2023-04-03T09:24:09;12.18;;;6.78;;
48951;SDS011;34758;42.148;24.744;2023-04-03T09:26:39;11.40;;;4.07;;
48951;SDS011;34758;42.148;24.744;2023-04-03T09:29:10;6.22;;;2.80;;
48951;SDS011;34758;42.148;24.744;2023-04-03T09:31:43;6.72;;;3.13;;
48951;SDS011;34758;42.148;24.744;2023-04-03T09:34:13;8.68;;;2.45;;
48951;SDS011;34758;42.148;24.744;2023-04-03T09:36:46;4.82;;;2.00;;
48951;SDS011;34758;42.148;24.744;2023-04-03T09:39:18;3.83;;;1.85;;
48951;SDS011;34758;42.148;24.744;2023-04-03T09:41:56;5.35;;;1.88;;
48951;SDS011;34758;42.148;24.744;2023-04-03T09:44:27;8.02;;;4.00;;
48951;SDS011;34758;42.148;24.744;2023-04-03T09:46:55;4.78;;;2.70;;
48951;SDS011;34758;42.148;24.744;2023-04-03T09:49:22;3.40;;;1.80;;
48951;SDS011;34758;42.148;24.744;2023-04-03T09:51:50;4.68;;;2.30;;
48951;SDS011;34758;42.148;24.744;2023-04-03T09:54:34;5.60;;;2.42;;
48951;SDS011;34758;42.148;24.744;2023-04-03T09:57:05;3.65;;;2.30;;
48951;SDS011;34758;42.148;24.744;2023-04-03T09:59:36;2.60;;;1.80;;
48951;SDS011;34758;42.148;24.744;2023-04-03T10:02:18;5.80;;;2.20;;
48951;SDS011;34758;42.148;24.744;2023-04-03T10:04:49;5.22;;;1.85;;
48951;SDS011;34758;42.148;24.744;2023-04-03T10:07:30;2.20;;;1.20;;
48951;SDS011;34758;42.148;24.744;2023-04-03T10:10:00;3.85;;;1.52;;
48951;SDS011;34758;42.148;24.744;2023-04-03T10:12:29;4.47;;;1.92;;
48951;SDS011;34758;42.148;24.744;2023-04-03T10:14:57;3.35;;;1.80;;
48951;SDS011;34758;42.148;24.744;2023-04-03T10:17:37;6.25;;;1.67;;
48951;SDS011;34758;42.148;24.744;2023-04-03T10:20:20;2.78;;;1.80;;
48951;SDS011;34758;42.148;24.744;2023-04-03T10:22:56;4.80;;;1.48;;
48951;SDS011;34758;42.148;24.744;2023-04-03T10:25:32;3.95;;;2.13;;
48951;SDS011;34758;42.148;24.744;2023-04-03T10:28:02;3.92;;;1.65;;
48951;SDS011;34758;42.148;24.744;2023-04-03T10:30:34;4.57;;;2.00;;
48951;SDS011;34758;42.148;24.744;2023-04-03T10:33:09;6.38;;;3.10;;
48951;SDS011;34758;42.148;24.744;2023-04-03T10:35:44;3.55;;;2.08;;
48951;SDS011;34758;42.148;24.744;2023-04-03T10:38:19;9.10;;;2.28;;
48951;SDS011;34758;42.148;24.744;2023-04-03T10:40:59;5.03;;;2.10;;
48951;SDS011;34758;42.148;24.744;2023-04-03T10:43:33;4.25;;;2.30;;
48951;SDS011;34758;42.148;24.744;2023-04-03T10:46:04;3.92;;;2.25;;
48951;SDS011;34758;42.148;24.744;2023-04-03T10:51:23;7.32;;;2.70;;
48951;SDS011;34758;42.148;24.744;2023-04-03T10:53:55;3.67;;;2.67;;
48951;SDS011;34758;42.148;24.744;2023-04-03T10:56:29;6.15;;;2.60;;
48951;SDS011;34758;42.148;24.744;2023-04-03T10:59:00;4.13;;;2.53;;
48951;SDS011;34758;42.148;24.744;2023-04-03T11:01:32;4.15;;;2.72;;
48951;SDS011;34758;42.148;24.744;2023-04-03T11:04:04;3.30;;;2.10;;
48951;SDS011;34758;42.148;24.744;2023-04-03T11:06:32;6.13;;;2.42;;
48951;SDS011;34758;42.148;24.744;2023-04-03T11:09:05;4.75;;;2.67;;
48951;SDS011;34758;42.148;24.744;2023-04-03T11:11:39;3.63;;;2.40;;
48951;SDS011;34758;42.148;24.744;2023-04-03T11:14:09;4.07;;;2.35;;
48951;SDS011;34758;42.148;24.744;2023-04-03T11:16:43;4.13;;;1.58;;
48951;SDS011;34758;42.148;24.744;2023-04-03T11:19:17;2.60;;;1.27;;
48951;SDS011;34758;42.148;24.744;2023-04-03T11:21:50;4.57;;;1.75;;
48951;SDS011;34758;42.148;24.744;2023-04-03T11:24:22;3.05;;;2.25;;
48951;SDS011;34758;42.148;24.744;2023-04-03T11:26:52;4.47;;;2.30;;
48951;SDS011;34758;42.148;24.744;2023-04-03T11:29:21;3.95;;;3.00;;
48951;SDS011;34758;42.148;24.744;2023-04-03T11:34:40;6.30;;;4.45;;
48951;SDS011;34758;42.148;24.744;2023-04-03T11:37:13;7.93;;;4.60;;
48951;SDS011;34758;42.148;24.744;2023-04-03T11:39:47;10.35;;;5.80;;
48951;SDS011;34758;42.148;24.744;2023-04-03T11:42:25;10.85;;;6.32;;
48951;SDS011;34758;42.148;24.744;2023-04-03T11:47:43;7.20;;;3.08;;
48951;SDS011;34758;42.148;24.744;2023-04-03T11:53:02;6.93;;;4.22;;
48951;SDS011;34758;42.148;24.744;2023-04-03T11:56:02;7.63;;;4.40;;
48951;SDS011;34758;42.148;24.744;2023-04-03T11:58:36;10.95;;;7.45;;
48951;SDS011;34758;42.148;24.744;2023-04-03T12:01:13;8.70;;;4.22;;
48951;SDS011;34758;42.148;24.744;2023-04-03T12:04:11;7.22;;;4.22;;
48951;SDS011;34758;42.148;24.744;2023-04-03T12:09:54;9.68;;;6.57;;
48951;SDS011;34758;42.148;24.744;2023-04-03T12:12:36;9.82;;;5.70;;
48951;SDS011;34758;42.148;24.744;2023-04-03T12:18:37;9.65;;;5.63;;
48951;SDS011;34758;42.148;24.744;2023-04-03T12:21:09;6.40;;;4.22;;
48951;SDS011;34758;42.148;24.744;2023-04-03T12:26:24;4.47;;;3.10;;
48951;SDS011;34758;42.148;24.744;2023-04-03T12:28:53;5.95;;;3.17;;
48951;SDS011;34758;42.148;24.744;2023-04-03T12:31:22;5.25;;;2.70;;
48951;SDS011;34758;42.148;24.744;2023-04-03T12:33:59;4.63;;;2.53;;
48951;SDS011;34758;42.148;24.744;2023-04-03T12:36:34;6.53;;;2.90;;
48951;SDS011;34758;42.148;24.744;2023-04-03T12:42:20;6.13;;;3.50;;
48951;SDS011;34758;42.148;24.744;2023-04-03T12:45:09;5.65;;;3.65;;
48951;SDS011;34758;42.148;24.744;2023-04-03T12:47:42;5.97;;;3.45;;
48951;SDS011;34758;42.148;24.744;2023-04-03T12:50:17;5.95;;;3.72;;
48951;SDS011;34758;42.148;24.744;2023-04-03T12:52:50;4.25;;;3.30;;
48951;SDS011;34758;42.148;24.744;2023-04-03T12:55:19;7.40;;;3.63;;
48951;SDS011;34758;42.148;24.744;2023-04-03T12:57:47;5.32;;;3.03;;
48951;SDS011;34758;42.148;24.744;2023-04-03T13:00:19;8.68;;;3.55;;
48951;SDS011;34758;42.148;24.744;2023-04-03T13:02:47;4.45;;;3.33;;
48951;SDS011;34758;42.148;24.744;2023-04-03T13:05:18;7.40;;;3.25;;
48951;SDS011;34758;42.148;24.744;2023-04-03T13:07:48;5.22;;;3.15;;
48951;SDS011;34758;42.148;24.744;2023-04-03T13:10:17;6.18;;;3.55;;
48951;SDS011;34758;42.148;24.744;2023-04-03T13:12:46;4.32;;;2.75;;
48951;SDS011;34758;42.148;24.744;2023-04-03T13:15:16;4.10;;;2.83;;
48951;SDS011;34758;42.148;24.744;2023-04-03T13:17:47;4.50;;;2.70;;
48951;SDS011;34758;42.148;24.744;2023-04-03T13:20:21;7.13;;;3.80;;
48951;SDS011;34758;42.148;24.744;2023-04-03T13:22:55;7.80;;;3.20;;
48951;SDS011;34758;42.148;24.744;2023-04-03T13:25:25;6.38;;;2.95;;
48951;SDS011;34758;42.148;24.744;2023-04-03T13:27:56;5.53;;;3.38;;
48951;SDS011;34758;42.148;24.744;2023-04-03T13:30:27;4.30;;;3.17;;
48951;SDS011;34758;42.148;24.744;2023-04-03T13:32:56;4.88;;;3.55;;
48951;SDS011;34758;42.148;24.744;2023-04-03T13:35:32;6.55;;;3.30;;
48951;SDS011;34758;42.148;24.744;2023-04-03T13:38:04;6.70;;;3.70;;
48951;SDS011;34758;42.148;24.744;2023-04-03T13:40:48;4.95;;;3.42;;
48951;SDS011;34758;42.148;24.744;2023-04-03T13:43:17;5.93;;;3.67;;
48951;SDS011;34758;42.148;24.744;2023-04-03T13:45:53;5.55;;;3.63;;
48951;SDS011;34758;42.148;24.744;2023-04-03T13:48:26;6.32;;;3.22;;
48951;SDS011;34758;42.148;24.744;2023-04-03T13:50:56;6.25;;;3.72;;
48951;SDS011;34758;42.148;24.744;2023-04-03T13:53:25;5.93;;;3.60;;
48951;SDS011;34758;42.148;24.744;2023-04-03T13:55:54;4.45;;;3.60;;
48951;SDS011;34758;42.148;24.744;2023-04-03T13:58:23;8.15;;;4.80;;
48951;SDS011;34758;42.148;24.744;2023-04-03T14:00:51;8.50;;;4.70;;
48951;SDS011;34758;42.148;24.744;2023-04-03T14:03:21;6.30;;;5.25;;
48951;SDS011;34758;42.148;24.744;2023-04-03T14:05:50;7.20;;;5.43;;
48951;SDS011;34758;42.148;24.744;2023-04-03T14:08:19;7.35;;;5.35;;
48951;SDS011;34758;42.148;24.744;2023-04-03T14:10:48;9.75;;;6.57;;
48951;SDS011;34758;42.148;24.744;2023-04-03T14:13:17;8.68;;;6.45;;
48951;SDS011;34758;42.148;24.744;2023-04-03T14:15:46;12.45;;;7.85;;
48951;SDS011;34758;42.148;24.744;2023-04-03T14:18:17;9.45;;;7.22;;
48951;SDS011;34758;42.148;24.744;2023-04-03T14:20:45;11.00;;;6.82;;
48951;SDS011;34758;42.148;24.744;2023-04-03T14:23:14;7.97;;;6.80;;
48951;SDS011;34758;42.148;24.744;2023-04-03T14:25:42;7.45;;;5.82;;
48951;SDS011;34758;42.148;24.744;2023-04-03T14:28:14;6.72;;;5.50;;
48951;SDS011;34758;42.148;24.744;2023-04-03T14:30:42;8.90;;;5.82;;
48951;SDS011;34758;42.148;24.744;2023-04-03T14:33:11;9.32;;;5.53;;
48951;SDS011;34758;42.148;24.744;2023-04-03T14:35:41;6.53;;;4.90;;
48951;SDS011;34758;42.148;24.744;2023-04-03T14:38:12;6.97;;;5.22;;
48951;SDS011;34758;42.148;24.744;2023-04-03T14:40:53;14.20;;;6.55;;
48951;SDS011;34758;42.148;24.744;2023-04-03T14:43:20;8.93;;;5.47;;
48951;SDS011;34758;42.148;24.744;2023-04-03T14:45:52;11.57;;;5.75;;
48951;SDS011;34758;42.148;24.744;2023-04-03T14:48:20;8.27;;;5.18;;
48951;SDS011;34758;42.148;24.744;2023-04-03T14:50:58;10.57;;;6.13;;
48951;SDS011;34758;42.148;24.744;2023-04-03T14:53:26;10.13;;;5.70;;
48951;SDS011;34758;42.148;24.744;2023-04-03T14:55:56;8.88;;;5.47;;
48951;SDS011;34758;42.148;24.744;2023-04-03T14:58:25;6.85;;;4.63;;
48951;SDS011;34758;42.148;24.744;2023-04-03T15:00:53;7.43;;;4.90;;
48951;SDS011;34758;42.148;24.744;2023-04-03T15:03:21;7.60;;;5.32;;
48951;SDS011;34758;42.148;24.744;2023-04-03T15:05:48;11.35;;;7.57;;
48951;SDS011;34758;42.148;24.744;2023-04-03T15:08:19;9.27;;;7.80;;
48951;SDS011;34758;42.148;24.744;2023-04-03T15:10:49;12.45;;;8.35;;
48951;SDS011;34758;42.148;24.744;2023-04-03T15:13:19;12.98;;;8.75;;
48951;SDS011;34758;42.148;24.744;2023-04-03T15:15:46;11.70;;;8.80;;
48951;SDS011;34758;42.148;24.744;2023-04-03T15:18:15;12.48;;;9.27;;
48951;SDS011;34758;42.148;24.744;2023-04-03T15:20:43;17.30;;;12.07;;